sensor_id;sensor_type;location;lat;lon;timestamp;pressure;altitude;pressure_sealevel;temperature;humidity
5298;BME280;14738;42.668;23.250;2023-05-02T00:00:32;48374.41;;;-141.90;70.51
5298;BME280;14738;42.668;23.250;2023-05-02T00:02:59;48374.41;;;-141.90;71.28
5298;BME280;14738;42.668;23.250;2023-05-02T00:05:25;48352.59;;;-141.90;72.20
5298;BME280;14738;42.668;23.250;2023-05-02T00:07:51;48366.47;;;-141.90;73.07
5298;BME280;14738;42.668;23.250;2023-05-02T00:10:16;48386.34;;;-141.90;74.57
5298;BME280;14738;42.668;23.250;2023-05-02T00:12:42;48372.44;;;-141.90;74.75
5298;BME280;14738;42.668;23.250;2023-05-02T00:15:08;48378.38;;;-141.90;75.59
5298;BME280;14738;42.668;23.250;2023-05-02T00:17:33;48344.63;;;-141.90;71.32
5298;BME280;14738;42.668;23.250;2023-05-02T00:19:58;48354.56;;;-141.90;72.63
5298;BME280;14738;42.668;23.250;2023-05-02T00:22:24;48378.38;;;-141.90;74.24
5298;BME280;14738;42.668;23.250;2023-05-02T00:24:49;48394.28;;;-141.90;72.77
5298;BME280;14738;42.668;23.250;2023-05-02T00:27:15;48378.38;;;-141.90;65.71
5298;BME280;14738;42.668;23.250;2023-05-02T00:29:43;48358.53;;;-141.90;64.15
5298;BME280;14738;42.668;23.250;2023-05-02T00:32:08;48354.56;;;-141.90;62.94
5298;BME280;14738;42.668;23.250;2023-05-02T00:34:34;48390.31;;;-141.90;65.08
5298;BME280;14738;42.668;23.250;2023-05-02T00:36:59;48378.38;;;-141.90;62.58
5298;BME280;14738;42.668;23.250;2023-05-02T00:39:24;48386.34;;;-141.90;63.98
5298;BME280;14738;42.668;23.250;2023-05-02T00:41:59;48392.28;;;-141.90;63.26
5298;BME280;14738;42.668;23.250;2023-05-02T00:44:25;48390.31;;;-141.90;64.43
5298;BME280;14738;42.668;23.250;2023-05-02T00:46:51;48390.31;;;-141.90;64.63
5298;BME280;14738;42.668;23.250;2023-05-02T00:49:17;48394.28;;;-141.90;65.07
5298;BME280;14738;42.668;23.250;2023-05-02T00:51:43;48370.44;;;-141.90;66.84
5298;BME280;14738;42.668;23.250;2023-05-02T00:54:08;48388.31;;;-141.90;68.09
5298;BME280;14738;42.668;23.250;2023-05-02T00:56:35;48342.66;;;-141.90;68.77
5298;BME280;14738;42.668;23.250;2023-05-02T00:59:01;48354.56;;;-141.90;69.41
5298;BME280;14738;42.668;23.250;2023-05-02T01:07:41;48380.38;;;-141.90;73.60
5298;BME280;14738;42.668;23.250;2023-05-02T01:13:20;48362.50;;;-141.90;72.44
5298;BME280;14738;42.668;23.250;2023-05-02T01:15:48;48352.59;;;-141.90;73.47
5298;BME280;14738;42.668;23.250;2023-05-02T01:18:17;48354.56;;;-141.90;77.19
5298;BME280;14738;42.668;23.250;2023-05-02T01:20:47;48360.53;;;-141.90;78.38
5298;BME280;14738;42.668;23.250;2023-05-02T01:23:38;48390.31;;;-141.90;80.34
5298;BME280;14738;42.668;23.250;2023-05-02T01:26:11;48400.22;;;-141.90;84.09
5298;BME280;14738;42.668;23.250;2023-05-02T01:31:21;48384.34;;;-141.90;87.42
5298;BME280;14738;42.668;23.250;2023-05-02T01:33:48;48386.34;;;-141.90;88.07
5298;BME280;14738;42.668;23.250;2023-05-02T01:36:16;48386.34;;;-141.90;89.57
5298;BME280;14738;42.668;23.250;2023-05-02T01:38:43;48354.56;;;-141.90;89.69
5298;BME280;14738;42.668;23.250;2023-05-02T01:41:09;48346.63;;;-141.90;90.44
5298;BME280;14738;42.668;23.250;2023-05-02T01:43:37;48386.34;;;-141.90;92.55
5298;BME280;14738;42.668;23.250;2023-05-02T01:46:04;48366.47;;;-141.90;91.91
5298;BME280;14738;42.668;23.250;2023-05-02T01:48:31;48380.38;;;-141.90;91.65
5298;BME280;14738;42.668;23.250;2023-05-02T01:50:57;48380.38;;;-141.90;91.39
5298;BME280;14738;42.668;23.250;2023-05-02T01:53:27;48356.56;;;-141.90;90.24
5298;BME280;14738;42.668;23.250;2023-05-02T01:55:57;48370.44;;;-141.90;90.53
5298;BME280;14738;42.668;23.250;2023-05-02T01:58:24;48362.50;;;-141.90;90.65
5298;BME280;14738;42.668;23.250;2023-05-02T02:00:52;48384.34;;;-141.90;90.76
5298;BME280;14738;42.668;23.250;2023-05-02T02:03:18;48370.44;;;-141.90;90.73
5298;BME280;14738;42.668;23.250;2023-05-02T02:05:44;48396.25;;;-141.90;90.92
5298;BME280;14738;42.668;23.250;2023-05-02T02:08:12;48386.34;;;-141.90;91.18
5298;BME280;14738;42.668;23.250;2023-05-02T02:10:44;48406.19;;;-141.90;91.99
5298;BME280;14738;42.668;23.250;2023-05-02T02:13:18;48370.44;;;-141.90;93.45
5298;BME280;14738;42.668;23.250;2023-05-02T02:15:48;48394.28;;;-141.90;95.45
5298;BME280;14738;42.668;23.250;2023-05-02T02:18:22;48400.22;;;-141.90;96.27
5298;BME280;14738;42.668;23.250;2023-05-02T02:20:52;48370.44;;;-141.90;96.38
5298;BME280;14738;42.668;23.250;2023-05-02T02:23:20;48362.50;;;-141.90;95.99
5298;BME280;14738;42.668;23.250;2023-05-02T02:25:49;48400.22;;;-141.90;96.78
5298;BME280;14738;42.668;23.250;2023-05-02T02:28:16;48380.38;;;-141.90;96.94
5298;BME280;14738;42.668;23.250;2023-05-02T02:30:42;48400.22;;;-141.90;98.33
5298;BME280;14738;42.668;23.250;2023-05-02T02:33:07;48390.31;;;-141.90;98.38
5298;BME280;14738;42.668;23.250;2023-05-02T02:35:37;48404.19;;;-141.90;99.19
5298;BME280;14738;42.668;23.250;2023-05-02T02:38:25;48400.22;;;-141.90;100.00
5298;BME280;14738;42.668;23.250;2023-05-02T02:44:03;48388.31;;;-141.90;99.84
5298;BME280;14738;42.668;23.250;2023-05-02T02:49:50;48394.28;;;-141.90;97.66
5298;BME280;14738;42.668;23.250;2023-05-02T02:52:25;48362.50;;;-141.90;97.84
5298;BME280;14738;42.668;23.250;2023-05-02T02:54:59;48378.38;;;-141.90;98.19
5298;BME280;14738;42.668;23.250;2023-05-02T02:57:38;48414.13;;;-141.90;98.24
5298;BME280;14738;42.668;23.250;2023-05-02T03:00:14;48390.31;;;-141.90;98.10
5298;BME280;14738;42.668;23.250;2023-05-02T03:02:41;48374.41;;;-141.90;98.81
5298;BME280;14738;42.668;23.250;2023-05-02T03:05:08;48372.44;;;-141.90;99.32
5298;BME280;14738;42.668;23.250;2023-05-02T03:07:34;48404.19;;;-141.90;99.13
5298;BME280;14738;42.668;23.250;2023-05-02T03:10:02;48372.44;;;-141.90;99.34
5298;BME280;14738;42.668;23.250;2023-05-02T03:12:29;48410.16;;;-141.90;98.92
5298;BME280;14738;42.668;23.250;2023-05-02T03:15:13;48354.56;;;-141.90;99.21
5298;BME280;14738;42.668;23.250;2023-05-02T03:17:42;48410.16;;;-141.90;99.41
5298;BME280;14738;42.668;23.250;2023-05-02T03:20:08;48406.19;;;-141.90;100.00
5298;BME280;14738;42.668;23.250;2023-05-02T03:22:33;48370.44;;;-141.90;100.00
5298;BME280;14738;42.668;23.250;2023-05-02T03:24:58;48398.25;;;-141.90;100.00
5298;BME280;14738;42.668;23.250;2023-05-02T03:27:24;48386.34;;;-141.90;100.00
5298;BME280;14738;42.668;23.250;2023-05-02T03:29:50;48370.44;;;-141.90;100.00
5298;BME280;14738;42.668;23.250;2023-05-02T03:32:15;48386.34;;;-141.90;100.00
5298;BME280;14738;42.668;23.250;2023-05-02T03:34:41;48394.28;;;-141.90;100.00
5298;BME280;14738;42.668;23.250;2023-05-02T03:37:06;48386.34;;;-141.90;100.00
5298;BME280;14738;42.668;23.250;2023-05-02T03:39:32;48358.53;;;-141.90;99.72
5298;BME280;14738;42.668;23.250;2023-05-02T03:41:57;48370.44;;;-141.90;89.81
5298;BME280;14738;42.668;23.250;2023-05-02T03:44:22;48366.47;;;-141.90;81.75
5298;BME280;14738;42.668;23.250;2023-05-02T03:46:48;48370.44;;;-141.90;76.59
5298;BME280;14738;42.668;23.250;2023-05-02T03:49:13;48398.25;;;-141.90;74.46
5298;BME280;14738;42.668;23.250;2023-05-02T03:51:39;48378.38;;;-141.90;72.38
5298;BME280;14738;42.668;23.250;2023-05-02T03:54:04;48392.28;;;-141.90;70.77
5298;BME280;14738;42.668;23.250;2023-05-02T03:56:30;48384.34;;;-141.90;67.58
5298;BME280;14738;42.668;23.250;2023-05-02T03:58:55;48374.41;;;-141.90;42.93
5298;BME280;14738;42.668;23.250;2023-05-02T04:01:21;48390.31;;;-141.90;41.61
5298;BME280;14738;42.668;23.250;2023-05-02T04:03:46;48390.31;;;-141.90;40.79
5298;BME280;14738;42.668;23.250;2023-05-02T04:06:12;48402.22;;;-141.90;40.52
5298;BME280;14738;42.668;23.250;2023-05-02T04:08:37;48416.09;;;-141.90;39.20
5298;BME280;14738;42.668;23.250;2023-05-02T04:11:03;48414.13;;;-141.90;36.70
5298;BME280;14738;42.668;23.250;2023-05-02T04:13:28;48408.16;;;-141.90;37.30
5298;BME280;14738;42.668;23.250;2023-05-02T04:15:54;48396.25;;;-141.90;35.93
5298;BME280;14738;42.668;23.250;2023-05-02T04:18:22;48453.81;;;-141.90;36.41
5298;BME280;14738;42.668;23.250;2023-05-02T04:20:49;48445.88;;;-141.90;35.50
5298;BME280;14738;42.668;23.250;2023-05-02T04:23:14;48467.72;;;-141.90;34.03
5298;BME280;14738;42.668;23.250;2023-05-02T04:25:40;48529.28;;;-141.90;31.51
5298;BME280;14738;42.668;23.250;2023-05-02T04:28:05;48469.72;;;-141.90;31.38
5298;BME280;14738;42.668;23.250;2023-05-02T04:30:31;48509.41;;;-141.90;30.61
5298;BME280;14738;42.668;23.250;2023-05-02T04:32:56;48493.53;;;-141.90;31.15
5298;BME280;14738;42.668;23.250;2023-05-02T04:35:22;48495.53;;;-141.90;30.34
5298;BME280;14738;42.668;23.250;2023-05-02T04:37:48;48513.38;;;-141.90;30.72
5298;BME280;14738;42.668;23.250;2023-05-02T04:40:14;48501.47;;;-141.90;29.71
5298;BME280;14738;42.668;23.250;2023-05-02T04:42:39;48578.91;;;-141.90;28.64
5298;BME280;14738;42.668;23.250;2023-05-02T04:45:05;48592.81;;;-141.90;28.20
5298;BME280;14738;42.668;23.250;2023-05-02T04:47:31;48563.03;;;-141.90;29.36
5298;BME280;14738;42.668;23.250;2023-05-02T04:49:56;48553.09;;;-141.90;28.77
5298;BME280;14738;42.668;23.250;2023-05-02T04:52:22;48580.88;;;-141.90;28.05
5298;BME280;14738;42.668;23.250;2023-05-02T04:54:48;48592.81;;;-141.90;28.09
5298;BME280;14738;42.668;23.250;2023-05-02T04:57:13;48596.78;;;-141.90;27.47
5298;BME280;14738;42.668;23.250;2023-05-02T04:59:39;48606.69;;;-141.90;27.25
5298;BME280;14738;42.668;23.250;2023-05-02T05:02:04;48598.75;;;-141.90;27.44
5298;BME280;14738;42.668;23.250;2023-05-02T05:04:30;48523.31;;;-141.90;28.84
5298;BME280;14738;42.668;23.250;2023-05-02T05:06:55;48463.75;;;-141.90;31.17
5298;BME280;14738;42.668;23.250;2023-05-02T05:09:21;48477.66;;;-141.90;30.82
5298;BME280;14738;42.668;23.250;2023-05-02T05:11:46;48477.66;;;-141.90;31.41
5298;BME280;14738;42.668;23.250;2023-05-02T05:14:12;48469.72;;;-141.90;31.60
5298;BME280;14738;42.668;23.250;2023-05-02T05:16:37;48487.56;;;-141.90;30.42
5298;BME280;14738;42.668;23.250;2023-05-02T05:19:03;48463.75;;;-141.90;29.99
5298;BME280;14738;42.668;23.250;2023-05-02T05:21:29;48509.41;;;-141.90;30.38
5298;BME280;14738;42.668;23.250;2023-05-02T05:23:55;48523.31;;;-141.90;29.35
5298;BME280;14738;42.668;23.250;2023-05-02T05:26:21;48568.97;;;-141.90;27.17
5298;BME280;14738;42.668;23.250;2023-05-02T05:28:47;48561.03;;;-141.90;27.76
5298;BME280;14738;42.668;23.250;2023-05-02T05:31:14;48572.94;;;-141.90;28.19
5298;BME280;14738;42.668;23.250;2023-05-02T05:33:41;48594.78;;;-141.90;26.65
5298;BME280;14738;42.668;23.250;2023-05-02T05:36:09;48596.78;;;-141.90;26.89
5298;BME280;14738;42.668;23.250;2023-05-02T05:38:35;48570.97;;;-141.90;26.82
5298;BME280;14738;42.668;23.250;2023-05-02T05:41:01;48610.66;;;-141.90;25.70
5298;BME280;14738;42.668;23.250;2023-05-02T05:43:27;48509.41;;;-141.90;27.62
5298;BME280;14738;42.668;23.250;2023-05-02T05:45:54;48521.34;;;-141.90;27.77
5298;BME280;14738;42.668;23.250;2023-05-02T05:48:20;48539.19;;;-141.90;27.26
5298;BME280;14738;42.668;23.250;2023-05-02T05:50:46;48551.09;;;-141.90;27.35
5298;BME280;14738;42.668;23.250;2023-05-02T05:53:13;48565.00;;;-141.90;27.14
5298;BME280;14738;42.668;23.250;2023-05-02T05:55:39;48549.13;;;-141.90;26.21
5298;BME280;14738;42.668;23.250;2023-05-02T05:58:05;48459.78;;;-141.90;30.25
5298;BME280;14738;42.668;23.250;2023-05-02T06:00:37;48453.81;;;-141.90;31.51
5298;BME280;14738;42.668;23.250;2023-05-02T06:03:03;48511.41;;;-141.90;30.12
5298;BME280;14738;42.668;23.250;2023-05-02T06:05:29;48432.00;;;-141.90;32.05
5298;BME280;14738;42.668;23.250;2023-05-02T06:07:55;48461.78;;;-141.90;30.44
5298;BME280;14738;42.668;23.250;2023-05-02T06:10:21;48481.63;;;-141.90;30.01
5298;BME280;14738;42.668;23.250;2023-05-02T06:12:47;48485.59;;;-141.90;29.31
5298;BME280;14738;42.668;23.250;2023-05-02T06:15:12;48493.53;;;-141.90;30.30
5298;BME280;14738;42.668;23.250;2023-05-02T06:17:37;48493.53;;;-141.90;30.20
5298;BME280;14738;42.668;23.250;2023-05-02T06:20:03;48467.72;;;-141.90;30.62
5298;BME280;14738;42.668;23.250;2023-05-02T06:22:29;48501.47;;;-141.90;29.97
5298;BME280;14738;42.668;23.250;2023-05-02T06:24:54;48521.34;;;-141.90;28.35
5298;BME280;14738;42.668;23.250;2023-05-02T06:27:20;48497.50;;;-141.90;28.21
5298;BME280;14738;42.668;23.250;2023-05-02T06:29:45;48497.50;;;-141.90;29.11
5298;BME280;14738;42.668;23.250;2023-05-02T06:32:11;48430.00;;;-141.90;30.77
5298;BME280;14738;42.668;23.250;2023-05-02T06:34:36;48422.06;;;-141.90;30.89
5298;BME280;14738;42.668;23.250;2023-05-02T06:37:02;48451.84;;;-141.90;30.36
5298;BME280;14738;42.668;23.250;2023-05-02T06:39:27;48475.66;;;-141.90;30.06
5298;BME280;14738;42.668;23.250;2023-05-02T06:41:56;48433.97;;;-141.90;31.68
5298;BME280;14738;42.668;23.250;2023-05-02T06:44:22;48445.88;;;-141.90;32.15
5298;BME280;14738;42.668;23.250;2023-05-02T06:46:49;48493.53;;;-141.90;31.00
5298;BME280;14738;42.668;23.250;2023-05-02T06:49:15;48477.66;;;-141.90;29.74
5298;BME280;14738;42.668;23.250;2023-05-02T06:51:40;48461.78;;;-141.90;28.68
5298;BME280;14738;42.668;23.250;2023-05-02T06:54:06;48493.53;;;-141.90;28.89
5298;BME280;14738;42.668;23.250;2023-05-02T06:56:33;48461.78;;;-141.90;29.25
5298;BME280;14738;42.668;23.250;2023-05-02T06:58:58;48457.81;;;-141.90;30.97
5298;BME280;14738;42.668;23.250;2023-05-02T07:01:24;48479.63;;;-141.90;29.64
5298;BME280;14738;42.668;23.250;2023-05-02T07:03:50;48443.91;;;-141.90;30.44
5298;BME280;14738;42.668;23.250;2023-05-02T07:06:16;48430.00;;;-141.90;31.36
5298;BME280;14738;42.668;23.250;2023-05-02T07:08:41;48410.16;;;-141.90;31.62
5298;BME280;14738;42.668;23.250;2023-05-02T07:11:07;48384.34;;;-141.90;31.51
5298;BME280;14738;42.668;23.250;2023-05-02T07:13:32;48424.06;;;-141.90;32.25
5298;BME280;14738;42.668;23.250;2023-05-02T07:15:58;48422.06;;;-141.90;34.00
5298;BME280;14738;42.668;23.250;2023-05-02T07:18:23;48445.88;;;-141.90;31.64
5298;BME280;14738;42.668;23.250;2023-05-02T07:20:49;48408.16;;;-141.90;32.27
5298;BME280;14738;42.668;23.250;2023-05-02T07:23:14;48414.13;;;-141.90;32.84
5298;BME280;14738;42.668;23.250;2023-05-02T07:25:40;48406.19;;;-141.90;33.93
5298;BME280;14738;42.668;23.250;2023-05-02T07:28:06;48392.28;;;-141.90;32.90
5298;BME280;14738;42.668;23.250;2023-05-02T07:30:36;48404.19;;;-141.90;33.23
5298;BME280;14738;42.668;23.250;2023-05-02T07:33:01;48406.19;;;-141.90;33.29
5298;BME280;14738;42.668;23.250;2023-05-02T07:35:27;48422.06;;;-141.90;32.33
5298;BME280;14738;42.668;23.250;2023-05-02T07:38:14;48408.16;;;-141.90;33.21
5298;BME280;14738;42.668;23.250;2023-05-02T07:40:41;48414.13;;;-141.90;32.51
5298;BME280;14738;42.668;23.250;2023-05-02T07:43:07;48422.06;;;-141.90;32.59
5298;BME280;14738;42.668;23.250;2023-05-02T07:45:33;48394.28;;;-141.90;32.46
5298;BME280;14738;42.668;23.250;2023-05-02T07:47:59;48416.09;;;-141.90;32.25
5298;BME280;14738;42.668;23.250;2023-05-02T07:50:25;48406.19;;;-141.90;32.81
5298;BME280;14738;42.668;23.250;2023-05-02T07:52:51;48445.88;;;-141.90;32.77
5298;BME280;14738;42.668;23.250;2023-05-02T07:55:17;48410.16;;;-141.90;32.88
5298;BME280;14738;42.668;23.250;2023-05-02T07:57:42;48408.16;;;-141.90;32.55
5298;BME280;14738;42.668;23.250;2023-05-02T08:00:08;48433.97;;;-141.90;31.17
5298;BME280;14738;42.668;23.250;2023-05-02T08:02:35;48410.16;;;-141.90;31.53
5298;BME280;14738;42.668;23.250;2023-05-02T08:05:01;48394.28;;;-141.90;31.84
5298;BME280;14738;42.668;23.250;2023-05-02T08:07:27;48410.16;;;-141.90;31.56
5298;BME280;14738;42.668;23.250;2023-05-02T08:09:53;48394.28;;;-141.90;32.74
5298;BME280;14738;42.668;23.250;2023-05-02T08:12:18;48394.28;;;-141.90;32.02
5298;BME280;14738;42.668;23.250;2023-05-02T08:14:43;48422.06;;;-141.90;32.51
5298;BME280;14738;42.668;23.250;2023-05-02T08:17:09;48390.31;;;-141.90;32.48
5298;BME280;14738;42.668;23.250;2023-05-02T08:19:34;48406.19;;;-141.90;31.75
5298;BME280;14738;42.668;23.250;2023-05-02T08:22:00;48428.03;;;-141.90;31.62
5298;BME280;14738;42.668;23.250;2023-05-02T08:24:25;48418.09;;;-141.90;32.19
5298;BME280;14738;42.668;23.250;2023-05-02T08:26:50;48424.06;;;-141.90;32.33
5298;BME280;14738;42.668;23.250;2023-05-02T08:29:16;48412.13;;;-141.90;31.63
5298;BME280;14738;42.668;23.250;2023-05-02T08:31:42;48443.91;;;-141.90;31.66
5298;BME280;14738;42.668;23.250;2023-05-02T08:34:07;48430.00;;;-141.90;31.00
5298;BME280;14738;42.668;23.250;2023-05-02T08:36:33;48432.00;;;-141.90;30.74
5298;BME280;14738;42.668;23.250;2023-05-02T08:38:58;48420.09;;;-141.90;30.46
5298;BME280;14738;42.668;23.250;2023-05-02T08:41:24;48382.34;;;-141.90;31.49
5298;BME280;14738;42.668;23.250;2023-05-02T08:43:53;48382.34;;;-141.90;31.47
5298;BME280;14738;42.668;23.250;2023-05-02T08:46:21;48433.97;;;-141.90;31.91
5298;BME280;14738;42.668;23.250;2023-05-02T08:48:48;48410.16;;;-141.90;31.71
5298;BME280;14738;42.668;23.250;2023-05-02T08:51:15;48414.13;;;-141.90;31.79
5298;BME280;14738;42.668;23.250;2023-05-02T08:53:42;48394.28;;;-141.90;31.65
5298;BME280;14738;42.668;23.250;2023-05-02T08:56:09;48443.91;;;-141.90;30.92
5298;BME280;14738;42.668;23.250;2023-05-02T08:58:36;48430.00;;;-141.90;30.29
5298;BME280;14738;42.668;23.250;2023-05-02T09:01:09;48469.72;;;-141.90;30.41
5298;BME280;14738;42.668;23.250;2023-05-02T09:03:35;48463.75;;;-141.90;29.41
5298;BME280;14738;42.668;23.250;2023-05-02T09:06:09;48430.00;;;-141.90;30.14
5298;BME280;14738;42.668;23.250;2023-05-02T09:08:36;48445.88;;;-141.90;29.77
5298;BME280;14738;42.668;23.250;2023-05-02T09:11:02;48449.84;;;-141.90;29.67
5298;BME280;14738;42.668;23.250;2023-05-02T09:13:45;48457.81;;;-141.90;28.97
5298;BME280;14738;42.668;23.250;2023-05-02T09:16:16;48449.84;;;-141.90;29.18
5298;BME280;14738;42.668;23.250;2023-05-02T09:18:47;48441.91;;;-141.90;29.18
5298;BME280;14738;42.668;23.250;2023-05-02T09:21:17;48451.84;;;-141.90;28.88
5298;BME280;14738;42.668;23.250;2023-05-02T09:23:46;48449.84;;;-141.90;29.19
5298;BME280;14738;42.668;23.250;2023-05-02T09:26:17;48437.94;;;-141.90;29.06
5298;BME280;14738;42.668;23.250;2023-05-02T09:28:48;48433.97;;;-141.90;29.58
5298;BME280;14738;42.668;23.250;2023-05-02T09:31:16;48416.09;;;-141.90;29.13
5298;BME280;14738;42.668;23.250;2023-05-02T09:33:42;48437.94;;;-141.90;30.13
5298;BME280;14738;42.668;23.250;2023-05-02T09:36:11;48459.78;;;-141.90;28.18
5298;BME280;14738;42.668;23.250;2023-05-02T09:38:39;48441.91;;;-141.90;28.51
5298;BME280;14738;42.668;23.250;2023-05-02T09:41:04;48469.72;;;-141.90;29.23
5298;BME280;14738;42.668;23.250;2023-05-02T09:43:31;48459.78;;;-141.90;28.45
5298;BME280;14738;42.668;23.250;2023-05-02T09:48:29;48477.66;;;-141.90;27.14
5298;BME280;14738;42.668;23.250;2023-05-02T09:50:55;48441.91;;;-141.90;26.82
5298;BME280;14738;42.668;23.250;2023-05-02T09:53:23;48453.81;;;-141.90;27.82
5298;BME280;14738;42.668;23.250;2023-05-02T09:56:10;48465.75;;;-141.90;26.53
5298;BME280;14738;42.668;23.250;2023-05-02T09:58:35;48501.47;;;-141.90;26.75
5298;BME280;14738;42.668;23.250;2023-05-02T10:01:01;48457.81;;;-141.90;27.12
5298;BME280;14738;42.668;23.250;2023-05-02T10:03:27;48469.72;;;-141.90;27.86
5298;BME280;14738;42.668;23.250;2023-05-02T10:05:54;48469.72;;;-141.90;27.00
5298;BME280;14738;42.668;23.250;2023-05-02T10:08:24;48493.53;;;-141.90;26.66
5298;BME280;14738;42.668;23.250;2023-05-02T10:10:53;48501.47;;;-141.90;26.68
5298;BME280;14738;42.668;23.250;2023-05-02T10:13:21;48463.75;;;-141.90;26.82
5298;BME280;14738;42.668;23.250;2023-05-02T10:15:53;48465.75;;;-141.90;27.08
5298;BME280;14738;42.668;23.250;2023-05-02T10:20:58;48477.66;;;-141.90;27.47
5298;BME280;14738;42.668;23.250;2023-05-02T10:23:28;48517.34;;;-141.90;28.03
5298;BME280;14738;42.668;23.250;2023-05-02T10:25:54;48515.38;;;-141.90;25.26
5298;BME280;14738;42.668;23.250;2023-05-02T10:28:21;48475.66;;;-141.90;24.38
5298;BME280;14738;42.668;23.250;2023-05-02T10:30:48;48513.38;;;-141.90;25.57
5298;BME280;14738;42.668;23.250;2023-05-02T10:33:16;48489.56;;;-141.90;27.12
5298;BME280;14738;42.668;23.250;2023-05-02T10:35:43;48493.53;;;-141.90;24.82
5298;BME280;14738;42.668;23.250;2023-05-02T10:38:20;48493.53;;;-141.90;25.59
5298;BME280;14738;42.668;23.250;2023-05-02T10:40:49;48525.31;;;-141.90;26.29
5298;BME280;14738;42.668;23.250;2023-05-02T10:43:21;48475.66;;;-141.90;25.55
5298;BME280;14738;42.668;23.250;2023-05-02T10:45:48;48455.81;;;-141.90;25.38
5298;BME280;14738;42.668;23.250;2023-05-02T10:48:18;48473.69;;;-141.90;25.27
5298;BME280;14738;42.668;23.250;2023-05-02T10:50:46;48430.00;;;-141.90;25.45
5298;BME280;14738;42.668;23.250;2023-05-02T10:53:32;48465.75;;;-141.90;25.27
5298;BME280;14738;42.668;23.250;2023-05-02T10:56:19;48433.97;;;-141.90;25.22
5298;BME280;14738;42.668;23.250;2023-05-02T10:58:51;48437.94;;;-141.90;25.78
5298;BME280;14738;42.668;23.250;2023-05-02T11:03:59;48439.94;;;-141.90;24.91
5298;BME280;14738;42.668;23.250;2023-05-02T11:06:26;48449.84;;;-141.90;24.96
5298;BME280;14738;42.668;23.250;2023-05-02T11:11:47;48457.81;;;-141.90;25.43
5298;BME280;14738;42.668;23.250;2023-05-02T11:17:14;48455.81;;;-141.90;25.05
5298;BME280;14738;42.668;23.250;2023-05-02T11:24:47;48465.75;;;-141.90;24.52
5298;BME280;14738;42.668;23.250;2023-05-02T11:30:01;48485.59;;;-141.90;23.81
5298;BME280;14738;42.668;23.250;2023-05-02T11:35:20;48443.91;;;-141.90;24.35
5298;BME280;14738;42.668;23.250;2023-05-02T11:37:55;48467.72;;;-141.90;24.61
5298;BME280;14738;42.668;23.250;2023-05-02T11:40:21;48483.59;;;-141.90;24.14
5298;BME280;14738;42.668;23.250;2023-05-02T11:42:47;48503.47;;;-141.90;23.69
5298;BME280;14738;42.668;23.250;2023-05-02T11:45:12;48453.81;;;-141.90;24.37
5298;BME280;14738;42.668;23.250;2023-05-02T11:47:39;48445.88;;;-141.90;24.58
5298;BME280;14738;42.668;23.250;2023-05-02T11:50:05;48489.56;;;-141.90;24.90
5298;BME280;14738;42.668;23.250;2023-05-02T11:52:43;48503.47;;;-141.90;24.04
5298;BME280;14738;42.668;23.250;2023-05-02T11:55:14;48481.63;;;-141.90;24.18
5298;BME280;14738;42.668;23.250;2023-05-02T11:57:40;48467.72;;;-141.90;24.90
5298;BME280;14738;42.668;23.250;2023-05-02T12:00:07;48475.66;;;-141.90;25.00
5298;BME280;14738;42.668;23.250;2023-05-02T12:02:42;48449.84;;;-141.90;25.09
5298;BME280;14738;42.668;23.250;2023-05-02T12:05:10;48453.81;;;-141.90;25.07
5298;BME280;14738;42.668;23.250;2023-05-02T12:07:44;48463.75;;;-141.90;24.90
5298;BME280;14738;42.668;23.250;2023-05-02T12:10:11;48453.81;;;-141.90;25.12
5298;BME280;14738;42.668;23.250;2023-05-02T12:12:38;48461.78;;;-141.90;25.63
5298;BME280;14738;42.668;23.250;2023-05-02T12:15:04;48457.81;;;-141.90;25.16
5298;BME280;14738;42.668;23.250;2023-05-02T12:17:36;48453.81;;;-141.90;25.02
5298;BME280;14738;42.668;23.250;2023-05-02T12:20:03;48461.78;;;-141.90;25.22
5298;BME280;14738;42.668;23.250;2023-05-02T12:22:30;48422.06;;;-141.90;25.95
5298;BME280;14738;42.668;23.250;2023-05-02T12:24:55;48447.88;;;-141.90;25.81
5298;BME280;14738;42.668;23.250;2023-05-02T12:27:21;48445.88;;;-141.90;25.66
5298;BME280;14738;42.668;23.250;2023-05-02T12:29:47;48445.88;;;-141.90;25.46
5298;BME280;14738;42.668;23.250;2023-05-02T12:32:14;48430.00;;;-141.90;25.86
5298;BME280;14738;42.668;23.250;2023-05-02T12:34:40;48461.78;;;-141.90;25.60
5298;BME280;14738;42.668;23.250;2023-05-02T12:37:07;48437.94;;;-141.90;25.14
5298;BME280;14738;42.668;23.250;2023-05-02T12:39:40;48469.72;;;-141.90;25.50
5298;BME280;14738;42.668;23.250;2023-05-02T12:42:10;48453.81;;;-141.90;25.36
5298;BME280;14738;42.668;23.250;2023-05-02T12:44:38;48467.72;;;-141.90;25.22
5298;BME280;14738;42.668;23.250;2023-05-02T12:47:04;48441.91;;;-141.90;25.41
5298;BME280;14738;42.668;23.250;2023-05-02T12:49:29;48461.78;;;-141.90;25.67
5298;BME280;14738;42.668;23.250;2023-05-02T12:51:55;48469.72;;;-141.90;25.23
5298;BME280;14738;42.668;23.250;2023-05-02T12:54:21;48453.81;;;-141.90;24.70
5298;BME280;14738;42.668;23.250;2023-05-02T12:56:47;48457.81;;;-141.90;24.89
5298;BME280;14738;42.668;23.250;2023-05-02T12:59:29;48479.63;;;-141.90;25.62
5298;BME280;14738;42.668;23.250;2023-05-02T13:01:55;48453.81;;;-141.90;25.10
5298;BME280;14738;42.668;23.250;2023-05-02T13:04:21;48459.78;;;-141.90;24.83
5298;BME280;14738;42.668;23.250;2023-05-02T13:06:46;48457.81;;;-141.90;25.10
5298;BME280;14738;42.668;23.250;2023-05-02T13:09:12;48449.84;;;-141.90;25.03
5298;BME280;14738;42.668;23.250;2023-05-02T13:11:37;48447.88;;;-141.90;25.62
5298;BME280;14738;42.668;23.250;2023-05-02T13:14:03;48461.78;;;-141.90;25.36
5298;BME280;14738;42.668;23.250;2023-05-02T13:16:30;48453.81;;;-141.90;25.15
5298;BME280;14738;42.668;23.250;2023-05-02T13:18:55;48477.66;;;-141.90;25.23
5298;BME280;14738;42.668;23.250;2023-05-02T13:21:21;48437.94;;;-141.90;24.79
5298;BME280;14738;42.668;23.250;2023-05-02T13:23:47;48457.81;;;-141.90;23.81